PWSweather.com
Personal Weather Stations
Station Observations

YeovilGB

Lat: 50.949, Lon: -2.627

Elevation: 70

Station Type: Vantage Pro

http://www.yeovil-weather.me.uk/

High Low Average
Temperature 47.1°F8.4°C 36.5°F2.5°C 41.3°F5.2°C
Dew Point 38.8°F3.8°C 34.1°F1.2°C 36.8°F2.7°C
Winds 9.2 mph 14.8 kmh Calm Calm 3.0 mph WNW4.8 kmh WNW
Wind Gusts 18.4 mph29.6 kmh -- 7.0 mph11.3 kmh
Humidity 94% 67% 84%
Pressure 29.88 in1011.9 mb 29.57 in1001.4 mb -
Precipitation 0.01 in0.3 mm - -
Hour Temp Dew Point Humidity Winds Wind Gusts Pressure Precip Precip Rate Daily Precip Total
12:00 AM 36.5°F2.5°C 34.1°F1.2°C 91% 1.2 mph SW1.9 kmh SW 4.6 mph7.4 kmh 29.57 in1001.4 mb - 0.00 in0.0 mm 0.00 in0.0 mm
12:10 AM 36.9°F2.7°C 34.8°F1.6°C 92% 4.6 mph SW7.4 kmh SW 6.9 mph11.1 kmh 29.58 in1001.7 mb - 0.00 in0.0 mm 0.00 in0.0 mm
12:20 AM 37.2°F2.9°C 35.1°F1.7°C 92% 5.8 mph SW9.3 kmh SW 9.2 mph14.8 kmh 29.57 in1001.4 mb - 0.00 in0.0 mm 0.00 in0.0 mm
12:30 AM 37.5°F3.1°C 35.7°F2.1°C 93% 6.9 mph SW11.1 kmh SW 8.1 mph13.0 kmh 29.57 in1001.4 mb - 0.00 in0.0 mm 0.00 in0.0 mm
12:40 AM 38.0°F3.3°C 36.2°F2.3°C 93% 2.3 mph WSW3.7 kmh WSW 8.1 mph13.0 kmh 29.57 in1001.4 mb - 0.00 in0.0 mm 0.00 in0.0 mm
12:50 AM 38.2°F3.4°C 36.4°F2.4°C 93% 2.3 mph SW3.7 kmh SW 5.8 mph9.3 kmh 29.57 in1001.4 mb - 0.00 in0.0 mm 0.00 in0.0 mm
01:00 AM 38.5°F3.6°C 36.7°F2.6°C 93% 2.3 mph SW3.7 kmh SW 4.6 mph7.4 kmh 29.57 in1001.4 mb - 0.00 in0.0 mm 0.00 in0.0 mm
01:10 AM 38.8°F3.8°C 36.9°F2.7°C 93% 3.5 mph WSW5.6 kmh WSW 10.4 mph16.7 kmh 29.57 in1001.4 mb - 0.00 in0.0 mm 0.00 in0.0 mm
01:20 AM 39.2°F4.0°C 37.6°F3.1°C 94% 2.3 mph WSW3.7 kmh WSW 10.4 mph16.7 kmh 29.57 in1001.4 mb - 0.01 in0.3 mm 0.01 in0.3 mm
01:30 AM 39.6°F4.2°C 38.0°F3.3°C 94% 2.3 mph WSW3.7 kmh WSW 9.2 mph14.8 kmh 29.57 in1001.4 mb - 0.00 in0.0 mm 0.01 in0.3 mm
01:40 AM 40.0°F4.4°C 38.1°F3.4°C 93% 2.3 mph WSW3.7 kmh WSW 9.2 mph14.8 kmh 29.58 in1001.7 mb - 0.00 in0.0 mm 0.01 in0.3 mm
01:50 AM 40.3°F4.6°C 38.4°F3.6°C 93% 4.6 mph WSW7.4 kmh WSW 15.0 mph24.1 kmh 29.58 in1001.7 mb - 0.00 in0.0 mm 0.01 in0.3 mm
02:00 AM 40.6°F4.8°C 38.4°F3.6°C 92% 5.8 mph W9.3 kmh W 5.8 mph9.3 kmh 29.58 in1001.7 mb - 0.00 in0.0 mm 0.01 in0.3 mm
02:10 AM 40.7°F4.8°C 38.3°F3.5°C 91% 1.2 mph WSW1.9 kmh WSW 4.6 mph7.4 kmh 29.58 in1001.7 mb - 0.00 in0.0 mm 0.01 in0.3 mm
02:20 AM 40.7°F4.8°C 38.3°F3.5°C 91% 2.3 mph SW3.7 kmh SW 9.2 mph14.8 kmh 29.59 in1002.0 mb - 0.00 in0.0 mm 0.01 in0.3 mm
02:30 AM 40.9°F4.9°C 38.2°F3.4°C 90% 6.9 mph WSW11.1 kmh WSW 11.5 mph18.5 kmh 29.59 in1002.0 mb - 0.00 in0.0 mm 0.01 in0.3 mm
02:40 AM 40.8°F4.9°C 37.8°F3.2°C 89% 4.6 mph WSW7.4 kmh WSW 13.8 mph22.2 kmh 29.59 in1002.0 mb - 0.00 in0.0 mm 0.01 in0.3 mm
02:50 AM 40.8°F4.9°C 37.8°F3.2°C 89% 1.2 mph SW1.9 kmh SW 11.5 mph18.5 kmh 29.60 in1002.4 mb - 0.00 in0.0 mm 0.01 in0.3 mm
03:00 AM 40.9°F4.9°C 37.9°F3.3°C 89% 3.5 mph WSW5.6 kmh WSW 9.2 mph14.8 kmh 29.60 in1002.4 mb - 0.00 in0.0 mm 0.01 in0.3 mm
03:10 AM 40.9°F4.9°C 37.9°F3.3°C 89% 4.6 mph WSW7.4 kmh WSW 9.2 mph14.8 kmh 29.60 in1002.4 mb - 0.00 in0.0 mm 0.01 in0.3 mm
03:20 AM 40.8°F4.9°C 37.5°F3.1°C 88% 3.5 mph WNW5.6 kmh WNW 5.8 mph9.3 kmh 29.60 in1002.4 mb - 0.00 in0.0 mm 0.01 in0.3 mm
03:30 AM 40.5°F4.7°C 37.5°F3.1°C 89% 3.5 mph WSW5.6 kmh WSW 8.1 mph13.0 kmh 29.61 in1002.7 mb - 0.00 in0.0 mm 0.01 in0.3 mm
03:40 AM 40.3°F4.6°C 37.0°F2.8°C 88% 2.3 mph WSW3.7 kmh WSW 5.8 mph9.3 kmh 29.61 in1002.7 mb - 0.00 in0.0 mm 0.01 in0.3 mm
03:50 AM 40.2°F4.6°C 37.2°F2.9°C 89% 2.3 mph WSW3.7 kmh WSW 6.9 mph11.1 kmh 29.61 in1002.7 mb - 0.00 in0.0 mm 0.01 in0.3 mm
04:00 AM 40.1°F4.5°C 37.1°F2.8°C 89% 3.5 mph SW5.6 kmh SW 4.6 mph7.4 kmh 29.61 in1002.7 mb - 0.00 in0.0 mm 0.01 in0.3 mm
04:10 AM 40.1°F4.5°C 37.1°F2.8°C 89% 1.2 mph W1.9 kmh W 4.6 mph7.4 kmh 29.61 in1002.7 mb - 0.00 in0.0 mm 0.01 in0.3 mm
04:20 AM 40.1°F4.5°C 37.1°F2.8°C 89% 5.8 mph W9.3 kmh W 10.4 mph16.7 kmh 29.62 in1003.0 mb - 0.00 in0.0 mm 0.01 in0.3 mm
04:30 AM 40.2°F4.6°C 37.2°F2.9°C 89% 4.6 mph NW7.4 kmh NW 8.1 mph13.0 kmh 29.62 in1003.0 mb - 0.00 in0.0 mm 0.01 in0.3 mm
04:40 AM 40.3°F4.6°C 37.3°F2.9°C 89% 2.3 mph NW3.7 kmh NW 9.2 mph14.8 kmh 29.62 in1003.0 mb - 0.00 in0.0 mm 0.01 in0.3 mm
04:50 AM 40.2°F4.6°C 37.0°F2.8°C 88% 2.3 mph NW3.7 kmh NW 4.6 mph7.4 kmh 29.63 in1003.4 mb - 0.00 in0.0 mm 0.01 in0.3 mm
05:00 AM 40.2°F4.6°C 36.9°F2.7°C 88% 1.2 mph NW1.9 kmh NW 10.4 mph16.7 kmh 29.63 in1003.4 mb - 0.00 in0.0 mm 0.01 in0.3 mm
05:10 AM 40.0°F4.4°C 36.7°F2.6°C 88% 1.2 mph WNW1.9 kmh WNW 12.7 mph20.4 kmh 29.63 in1003.4 mb - 0.00 in0.0 mm 0.01 in0.3 mm
05:20 AM 39.9°F4.4°C 36.6°F2.6°C 88% 2.3 mph W3.7 kmh W 5.8 mph9.3 kmh 29.64 in1003.7 mb - 0.00 in0.0 mm 0.01 in0.3 mm
05:30 AM 40.0°F4.4°C 36.7°F2.6°C 88% Calm Calm -- 29.64 in1003.7 mb - 0.00 in0.0 mm 0.01 in0.3 mm
05:40 AM 39.9°F4.4°C 36.9°F2.7°C 89% 3.5 mph NW5.6 kmh NW 3.5 mph5.6 kmh 29.64 in1003.7 mb - 0.00 in0.0 mm 0.01 in0.3 mm
05:50 AM 39.8°F4.3°C 36.8°F2.7°C 89% 1.2 mph NW1.9 kmh NW 5.8 mph9.3 kmh 29.65 in1004.1 mb - 0.00 in0.0 mm 0.01 in0.3 mm
06:00 AM 39.7°F4.3°C 36.7°F2.6°C 89% 2.3 mph WNW3.7 kmh WNW 4.6 mph7.4 kmh 29.65 in1004.1 mb - 0.00 in0.0 mm 0.01 in0.3 mm
06:10 AM 39.7°F4.3°C 36.7°F2.6°C 89% 2.3 mph NW3.7 kmh NW 3.5 mph5.6 kmh 29.65 in1004.1 mb - 0.00 in0.0 mm 0.01 in0.3 mm
06:20 AM 39.7°F4.3°C 37.0°F2.8°C 90% 2.3 mph WNW3.7 kmh WNW 6.9 mph11.1 kmh 29.65 in1004.1 mb - 0.00 in0.0 mm 0.01 in0.3 mm
06:30 AM 39.6°F4.2°C 36.6°F2.6°C 89% 2.3 mph W3.7 kmh W 11.5 mph18.5 kmh 29.65 in1004.1 mb - 0.00 in0.0 mm 0.01 in0.3 mm
06:40 AM 39.6°F4.2°C 36.6°F2.6°C 89% 4.6 mph NW7.4 kmh NW 11.5 mph18.5 kmh 29.66 in1004.4 mb - 0.00 in0.0 mm 0.01 in0.3 mm
06:50 AM 39.5°F4.2°C 36.5°F2.5°C 89% 1.2 mph NW1.9 kmh NW 4.6 mph7.4 kmh 29.66 in1004.4 mb - 0.00 in0.0 mm 0.01 in0.3 mm
07:00 AM 39.4°F4.1°C 36.4°F2.4°C 89% 1.2 mph NW1.9 kmh NW 4.6 mph7.4 kmh 29.66 in1004.4 mb - 0.00 in0.0 mm 0.01 in0.3 mm
07:10 AM 39.3°F4.1°C 36.3°F2.4°C 89% 1.2 mph NW1.9 kmh NW 8.1 mph13.0 kmh 29.67 in1004.7 mb - 0.00 in0.0 mm 0.01 in0.3 mm
07:20 AM 39.2°F4.0°C 36.2°F2.3°C 89% Calm Calm -- 29.67 in1004.7 mb - 0.00 in0.0 mm 0.01 in0.3 mm
07:30 AM 39.2°F4.0°C 36.2°F2.3°C 89% 2.3 mph W3.7 kmh W 6.9 mph11.1 kmh 29.68 in1005.1 mb - 0.00 in0.0 mm 0.01 in0.3 mm
07:40 AM 39.3°F4.1°C 36.3°F2.4°C 89% 1.2 mph WNW1.9 kmh WNW 6.9 mph11.1 kmh 29.68 in1005.1 mb - 0.00 in0.0 mm 0.01 in0.3 mm
08:00 AM 39.5°F4.2°C 36.8°F2.7°C 90% 3.5 mph WSW5.6 kmh WSW 5.8 mph9.3 kmh 29.68 in1005.1 mb - 0.00 in0.0 mm 0.01 in0.3 mm
08:10 AM 39.5°F4.2°C 36.8°F2.7°C 90% 2.3 mph NW3.7 kmh NW 8.1 mph13.0 kmh 29.70 in1005.8 mb - 0.00 in0.0 mm 0.01 in0.3 mm
08:20 AM 39.7°F4.3°C 37.0°F2.8°C 90% 4.6 mph WNW7.4 kmh WNW 9.2 mph14.8 kmh 29.70 in1005.8 mb - 0.00 in0.0 mm 0.01 in0.3 mm
08:30 AM 39.8°F4.3°C 36.8°F2.7°C 89% 1.2 mph W1.9 kmh W 5.8 mph9.3 kmh 29.70 in1005.8 mb - 0.00 in0.0 mm 0.01 in0.3 mm
08:40 AM 39.9°F4.4°C 36.9°F2.7°C 89% 1.2 mph WNW1.9 kmh WNW 6.9 mph11.1 kmh 29.71 in1006.1 mb - 0.00 in0.0 mm 0.01 in0.3 mm
08:50 AM 40.1°F4.5°C 37.1°F2.8°C 89% 2.3 mph NW3.7 kmh NW 9.2 mph14.8 kmh 29.71 in1006.1 mb - 0.00 in0.0 mm 0.01 in0.3 mm
09:00 AM 40.5°F4.7°C 37.5°F3.1°C 89% 1.2 mph NW1.9 kmh NW 5.8 mph9.3 kmh 29.71 in1006.1 mb - 0.00 in0.0 mm 0.01 in0.3 mm
09:10 AM 40.8°F4.9°C 37.5°F3.1°C 88% 4.6 mph NW7.4 kmh NW 10.4 mph16.7 kmh 29.72 in1006.4 mb - 0.00 in0.0 mm 0.01 in0.3 mm
09:20 AM 41.2°F5.1°C 37.3°F2.9°C 86% 8.1 mph NW13.0 kmh NW 13.8 mph22.2 kmh 29.72 in1006.4 mb - 0.00 in0.0 mm 0.01 in0.3 mm
09:30 AM 41.4°F5.2°C 37.2°F2.9°C 85% 1.2 mph NW1.9 kmh NW 8.1 mph13.0 kmh 29.73 in1006.8 mb - 0.00 in0.0 mm 0.01 in0.3 mm
09:40 AM 41.5°F5.3°C 37.3°F2.9°C 85% 5.8 mph NW9.3 kmh NW 11.5 mph18.5 kmh 29.73 in1006.8 mb - 0.00 in0.0 mm 0.01 in0.3 mm
09:50 AM 41.7°F5.4°C 37.5°F3.1°C 85% 3.5 mph WNW5.6 kmh WNW 9.2 mph14.8 kmh 29.73 in1006.8 mb - 0.00 in0.0 mm 0.01 in0.3 mm
10:00 AM 42.2°F5.7°C 38.0°F3.3°C 85% 3.5 mph WNW5.6 kmh WNW 5.8 mph9.3 kmh 29.74 in1007.1 mb - 0.00 in0.0 mm 0.01 in0.3 mm
10:10 AM 43.1°F6.2°C 38.3°F3.5°C 83% 2.3 mph WNW3.7 kmh WNW 4.6 mph7.4 kmh 29.74 in1007.1 mb - 0.00 in0.0 mm 0.01 in0.3 mm
10:20 AM 43.1°F6.2°C 38.0°F3.3°C 82% Calm Calm -- 29.74 in1007.1 mb - 0.00 in0.0 mm 0.01 in0.3 mm
10:30 AM 43.2°F6.2°C 38.1°F3.4°C 82% 2.3 mph NW3.7 kmh NW 8.1 mph13.0 kmh 29.75 in1007.5 mb - 0.00 in0.0 mm 0.01 in0.3 mm
10:40 AM 43.6°F6.4°C 38.1°F3.4°C 81% 4.6 mph NW7.4 kmh NW 10.4 mph16.7 kmh 29.75 in1007.5 mb - 0.00 in0.0 mm 0.01 in0.3 mm
10:50 AM 43.3°F6.3°C 37.9°F3.3°C 81% 4.6 mph NW7.4 kmh NW 11.5 mph18.5 kmh 29.75 in1007.5 mb - 0.00 in0.0 mm 0.01 in0.3 mm
11:00 AM 44.0°F6.7°C 38.2°F3.4°C 80% 1.2 mph NW1.9 kmh NW 3.5 mph5.6 kmh 29.75 in1007.5 mb - 0.00 in0.0 mm 0.01 in0.3 mm
11:10 AM 44.9°F7.2°C 38.8°F3.8°C 79% 2.3 mph NW3.7 kmh NW 8.1 mph13.0 kmh 29.76 in1007.8 mb - 0.00 in0.0 mm 0.01 in0.3 mm
11:20 AM 45.6°F7.6°C 38.8°F3.8°C 77% 2.3 mph WNW3.7 kmh WNW 16.1 mph25.9 kmh 29.76 in1007.8 mb - 0.00 in0.0 mm 0.01 in0.3 mm
11:30 AM 46.0°F7.8°C 38.5°F3.6°C 75% Calm Calm -- 29.76 in1007.8 mb - 0.00 in0.0 mm 0.01 in0.3 mm
11:40 AM 46.4°F8.0°C 38.5°F3.6°C 74% 1.2 mph NW1.9 kmh NW 6.9 mph11.1 kmh 29.75 in1007.5 mb - 0.00 in0.0 mm 0.01 in0.3 mm
11:50 AM 46.7°F8.2°C 38.5°F3.6°C 73% 4.6 mph W7.4 kmh W 8.1 mph13.0 kmh 29.75 in1007.5 mb - 0.00 in0.0 mm 0.01 in0.3 mm
12:00 PM 46.9°F8.3°C 38.7°F3.7°C 73% 3.5 mph NW5.6 kmh NW 9.2 mph14.8 kmh 29.75 in1007.5 mb - 0.00 in0.0 mm 0.01 in0.3 mm
12:10 PM 46.7°F8.2°C 38.5°F3.6°C 73% 2.3 mph WNW3.7 kmh WNW 1.2 mph1.9 kmh 29.75 in1007.5 mb - 0.00 in0.0 mm 0.01 in0.3 mm
12:20 PM 47.0°F8.3°C 38.4°F3.6°C 72% 2.3 mph W3.7 kmh W 9.2 mph14.8 kmh 29.75 in1007.5 mb - 0.00 in0.0 mm 0.01 in0.3 mm
12:30 PM 47.1°F8.4°C 38.5°F3.6°C 72% 5.8 mph WNW9.3 kmh WNW 11.5 mph18.5 kmh 29.75 in1007.5 mb - 0.00 in0.0 mm 0.01 in0.3 mm
12:40 PM 46.9°F8.3°C 38.3°F3.5°C 72% 4.6 mph WSW7.4 kmh WSW 11.5 mph18.5 kmh 29.75 in1007.5 mb - 0.00 in0.0 mm 0.01 in0.3 mm
12:50 PM 46.5°F8.1°C 38.3°F3.5°C 73% 4.6 mph WNW7.4 kmh WNW 11.5 mph18.5 kmh 29.75 in1007.5 mb - 0.00 in0.0 mm 0.01 in0.3 mm
01:00 PM 46.0°F7.8°C 38.2°F3.4°C 74% 6.9 mph WNW11.1 kmh WNW 10.4 mph16.7 kmh 29.75 in1007.5 mb - 0.00 in0.0 mm 0.01 in0.3 mm
01:10 PM 46.1°F7.8°C 37.2°F2.9°C 71% 9.2 mph WNW14.8 kmh WNW 11.5 mph18.5 kmh 29.75 in1007.5 mb - 0.00 in0.0 mm 0.01 in0.3 mm
01:20 PM 46.1°F7.8°C 35.8°F2.1°C 67% 9.2 mph NW14.8 kmh NW 11.5 mph18.5 kmh 29.75 in1007.5 mb - 0.00 in0.0 mm 0.01 in0.3 mm
01:30 PM 45.8°F7.7°C 36.2°F2.3°C 69% 5.8 mph WNW9.3 kmh WNW 10.4 mph16.7 kmh 29.75 in1007.5 mb - 0.00 in0.0 mm 0.01 in0.3 mm
01:40 PM 46.1°F7.8°C 37.2°F2.9°C 71% 4.6 mph NW7.4 kmh NW 13.8 mph22.2 kmh 29.75 in1007.5 mb - 0.00 in0.0 mm 0.01 in0.3 mm
01:50 PM 46.1°F7.8°C 36.8°F2.7°C 70% Calm Calm 10.4 mph16.7 kmh 29.75 in1007.5 mb - 0.00 in0.0 mm 0.01 in0.3 mm
02:00 PM 45.9°F7.7°C 37.0°F2.8°C 71% 4.6 mph N7.4 kmh N 16.1 mph25.9 kmh 29.75 in1007.5 mb - 0.00 in0.0 mm 0.01 in0.3 mm
02:10 PM 45.6°F7.6°C 36.7°F2.6°C 71% 5.8 mph WNW9.3 kmh WNW 6.9 mph11.1 kmh 29.75 in1007.5 mb - 0.00 in0.0 mm 0.01 in0.3 mm
02:20 PM 45.6°F7.6°C 36.7°F2.6°C 71% 8.1 mph NW13.0 kmh NW 13.8 mph22.2 kmh 29.75 in1007.5 mb - 0.00 in0.0 mm 0.01 in0.3 mm
02:30 PM 45.4°F7.4°C 36.5°F2.5°C 71% 3.5 mph NW5.6 kmh NW 8.1 mph13.0 kmh 29.75 in1007.5 mb - 0.00 in0.0 mm 0.01 in0.3 mm
02:40 PM 45.4°F7.4°C 36.6°F2.6°C 71% 2.3 mph NW3.7 kmh NW 10.4 mph16.7 kmh 29.75 in1007.5 mb - 0.00 in0.0 mm 0.01 in0.3 mm
02:50 PM 45.3°F7.4°C 36.8°F2.7°C 72% 6.9 mph W11.1 kmh W 10.4 mph16.7 kmh 29.75 in1007.5 mb - 0.00 in0.0 mm 0.01 in0.3 mm
03:00 PM 45.1°F7.3°C 37.3°F2.9°C 74% 6.9 mph NW11.1 kmh NW 18.4 mph29.6 kmh 29.75 in1007.5 mb - 0.00 in0.0 mm 0.01 in0.3 mm
03:10 PM 44.4°F6.9°C 37.6°F3.1°C 77% 4.6 mph NW7.4 kmh NW 5.8 mph9.3 kmh 29.76 in1007.8 mb - 0.00 in0.0 mm 0.01 in0.3 mm
03:20 PM 44.3°F6.8°C 37.2°F2.9°C 76% 5.8 mph W9.3 kmh W 12.7 mph20.4 kmh 29.77 in1008.1 mb - 0.00 in0.0 mm 0.01 in0.3 mm
03:30 PM 44.0°F6.7°C 35.9°F2.2°C 73% 4.6 mph NW7.4 kmh NW 6.9 mph11.1 kmh 29.77 in1008.1 mb - 0.00 in0.0 mm 0.01 in0.3 mm
03:40 PM 43.9°F6.6°C 36.8°F2.7°C 76% 2.3 mph NW3.7 kmh NW 4.6 mph7.4 kmh 29.77 in1008.1 mb - 0.00 in0.0 mm 0.01 in0.3 mm
03:50 PM 43.6°F6.4°C 37.2°F2.9°C 78% 3.5 mph WNW5.6 kmh WNW 8.1 mph13.0 kmh 29.77 in1008.1 mb - 0.00 in0.0 mm 0.01 in0.3 mm
04:00 PM 43.4°F6.3°C 37.7°F3.2°C 80% 2.3 mph NW3.7 kmh NW 10.4 mph16.7 kmh 29.77 in1008.1 mb - 0.00 in0.0 mm 0.01 in0.3 mm
04:10 PM 43.2°F6.2°C 37.4°F3.0°C 80% 1.2 mph NW1.9 kmh NW 6.9 mph11.1 kmh 29.77 in1008.1 mb - 0.00 in0.0 mm 0.01 in0.3 mm
04:20 PM 42.9°F6.1°C 37.2°F2.9°C 80% Calm Calm -- 29.77 in1008.1 mb - 0.00 in0.0 mm 0.01 in0.3 mm
04:30 PM 42.9°F6.1°C 37.5°F3.1°C 81% 2.3 mph WNW3.7 kmh WNW 5.8 mph9.3 kmh 29.77 in1008.1 mb - 0.00 in0.0 mm 0.01 in0.3 mm
04:40 PM 42.5°F5.8°C 37.1°F2.8°C 81% 2.3 mph W3.7 kmh W 6.9 mph11.1 kmh 29.77 in1008.1 mb - 0.00 in0.0 mm 0.01 in0.3 mm
04:50 PM 42.1°F5.6°C 36.7°F2.6°C 81% 2.3 mph W3.7 kmh W 2.3 mph3.7 kmh 29.78 in1008.5 mb - 0.00 in0.0 mm 0.01 in0.3 mm
05:00 PM 41.9°F5.5°C 36.8°F2.7°C 82% 1.2 mph WNW1.9 kmh WNW 5.8 mph9.3 kmh 29.78 in1008.5 mb - 0.00 in0.0 mm 0.01 in0.3 mm
05:10 PM 41.7°F5.4°C 36.9°F2.7°C 83% Calm Calm -- 29.79 in1008.8 mb - 0.00 in0.0 mm 0.01 in0.3 mm
05:20 PM 41.5°F5.3°C 36.7°F2.6°C 83% 2.3 mph WNW3.7 kmh WNW 9.2 mph14.8 kmh 29.80 in1009.1 mb - 0.00 in0.0 mm 0.01 in0.3 mm
05:30 PM 41.3°F5.2°C 36.8°F2.7°C 84% 3.5 mph WNW5.6 kmh WNW 6.9 mph11.1 kmh 29.80 in1009.1 mb - 0.00 in0.0 mm 0.01 in0.3 mm
05:40 PM 41.2°F5.1°C 36.8°F2.7°C 84% 4.6 mph NW7.4 kmh NW 9.2 mph14.8 kmh 29.80 in1009.1 mb - 0.00 in0.0 mm 0.01 in0.3 mm
05:50 PM 41.2°F5.1°C 36.7°F2.6°C 84% 2.3 mph NW3.7 kmh NW 4.6 mph7.4 kmh 29.80 in1009.1 mb - 0.00 in0.0 mm 0.01 in0.3 mm
06:00 PM 41.0°F5.0°C 36.6°F2.6°C 84% 4.6 mph WNW7.4 kmh WNW 9.2 mph14.8 kmh 29.80 in1009.1 mb - 0.00 in0.0 mm 0.01 in0.3 mm
06:10 PM 41.0°F5.0°C 36.5°F2.5°C 84% Calm Calm 3.5 mph5.6 kmh 29.81 in1009.5 mb - 0.00 in0.0 mm 0.01 in0.3 mm
06:20 PM 40.9°F4.9°C 36.7°F2.6°C 85% 3.5 mph NW5.6 kmh NW 6.9 mph11.1 kmh 29.81 in1009.5 mb - 0.00 in0.0 mm 0.01 in0.3 mm
06:30 PM 40.8°F4.9°C 36.3°F2.4°C 84% 2.3 mph NNW3.7 kmh NNW 10.4 mph16.7 kmh 29.81 in1009.5 mb - 0.00 in0.0 mm 0.01 in0.3 mm
06:40 PM 40.7°F4.8°C 36.2°F2.3°C 84% 2.3 mph NW3.7 kmh NW 5.8 mph9.3 kmh 29.82 in1009.8 mb - 0.00 in0.0 mm 0.01 in0.3 mm
06:50 PM 40.6°F4.8°C 36.1°F2.3°C 84% 1.2 mph NW1.9 kmh NW 5.8 mph9.3 kmh 29.82 in1009.8 mb - 0.00 in0.0 mm 0.01 in0.3 mm
07:00 PM 40.3°F4.6°C 35.8°F2.1°C 84% Calm Calm -- 29.82 in1009.8 mb - 0.00 in0.0 mm 0.01 in0.3 mm
07:10 PM 40.0°F4.4°C 35.8°F2.1°C 85% 1.2 mph NW1.9 kmh NW 1.2 mph1.9 kmh 29.82 in1009.8 mb - 0.00 in0.0 mm 0.01 in0.3 mm
07:20 PM 39.8°F4.3°C 36.0°F2.2°C 86% Calm Calm 1.2 mph1.9 kmh 29.83 in1010.2 mb - 0.00 in0.0 mm 0.01 in0.3 mm
07:30 PM 39.6°F4.2°C 35.8°F2.1°C 86% 1.2 mph WNW1.9 kmh WNW 9.2 mph14.8 kmh 29.84 in1010.5 mb - 0.00 in0.0 mm 0.01 in0.3 mm
07:40 PM 39.5°F4.2°C 35.4°F1.9°C 85% 2.3 mph NW3.7 kmh NW 10.4 mph16.7 kmh 29.84 in1010.5 mb - 0.00 in0.0 mm 0.01 in0.3 mm
08:00 PM 39.5°F4.2°C 35.7°F2.1°C 86% 2.3 mph WNW3.7 kmh WNW 6.9 mph11.1 kmh 29.84 in1010.5 mb - 0.00 in0.0 mm 0.01 in0.3 mm
08:10 PM 39.5°F4.2°C 35.9°F2.2°C 87% 1.2 mph WSW1.9 kmh WSW 6.9 mph11.1 kmh 29.84 in1010.5 mb - 0.00 in0.0 mm 0.01 in0.3 mm
08:20 PM 39.4°F4.1°C 35.8°F2.1°C 87% Calm Calm 3.5 mph5.6 kmh 29.85 in1010.8 mb - 0.00 in0.0 mm 0.01 in0.3 mm
08:30 PM 39.2°F4.0°C 35.7°F2.1°C 87% Calm Calm -- 29.85 in1010.8 mb - 0.00 in0.0 mm 0.01 in0.3 mm
08:40 PM 39.1°F3.9°C 35.6°F2.0°C 87% 2.3 mph NW3.7 kmh NW 9.2 mph14.8 kmh 29.85 in1010.8 mb - 0.00 in0.0 mm 0.01 in0.3 mm
08:50 PM 39.1°F3.9°C 35.9°F2.2°C 88% 1.2 mph NW1.9 kmh NW 6.9 mph11.1 kmh 29.85 in1010.8 mb - 0.00 in0.0 mm 0.01 in0.3 mm
09:00 PM 39.1°F3.9°C 35.8°F2.1°C 88% 2.3 mph NW3.7 kmh NW 3.5 mph5.6 kmh 29.85 in1010.8 mb - 0.00 in0.0 mm 0.01 in0.3 mm
09:10 PM 39.0°F3.9°C 35.7°F2.1°C 88% Calm Calm 3.5 mph5.6 kmh 29.85 in1010.8 mb - 0.00 in0.0 mm 0.01 in0.3 mm
09:20 PM 38.8°F3.8°C 35.6°F2.0°C 88% 2.3 mph NW3.7 kmh NW 4.6 mph7.4 kmh 29.86 in1011.2 mb - 0.00 in0.0 mm 0.01 in0.3 mm
09:30 PM 38.7°F3.7°C 35.2°F1.8°C 87% Calm Calm -- 29.86 in1011.2 mb - 0.00 in0.0 mm 0.01 in0.3 mm
09:40 PM 38.5°F3.6°C 35.0°F1.7°C 87% 1.2 mph NW1.9 kmh NW 8.1 mph13.0 kmh 29.86 in1011.2 mb - 0.00 in0.0 mm 0.01 in0.3 mm
09:50 PM 38.4°F3.6°C 34.9°F1.6°C 87% Calm Calm 3.5 mph5.6 kmh 29.86 in1011.2 mb - 0.00 in0.0 mm 0.01 in0.3 mm
10:00 PM 38.4°F3.6°C 35.1°F1.7°C 88% 1.2 mph NW1.9 kmh NW 3.5 mph5.6 kmh 29.86 in1011.2 mb - 0.00 in0.0 mm 0.01 in0.3 mm
10:10 PM 38.4°F3.6°C 35.2°F1.8°C 88% Calm Calm 4.6 mph7.4 kmh 29.86 in1011.2 mb - 0.00 in0.0 mm 0.01 in0.3 mm
10:20 PM 38.8°F3.8°C 35.6°F2.0°C 88% 4.6 mph NW7.4 kmh NW 8.1 mph13.0 kmh 29.87 in1011.5 mb - 0.00 in0.0 mm 0.01 in0.3 mm
10:30 PM 38.9°F3.8°C 35.3°F1.8°C 87% 1.2 mph WNW1.9 kmh WNW 5.8 mph9.3 kmh 29.87 in1011.5 mb - 0.00 in0.0 mm 0.01 in0.3 mm
10:40 PM 38.8°F3.8°C 35.3°F1.8°C 87% 2.3 mph NW3.7 kmh NW 4.6 mph7.4 kmh 29.87 in1011.5 mb - 0.00 in0.0 mm 0.01 in0.3 mm
10:50 PM 38.7°F3.7°C 35.2°F1.8°C 87% 1.2 mph WNW1.9 kmh WNW 8.1 mph13.0 kmh 29.87 in1011.5 mb - 0.00 in0.0 mm 0.01 in0.3 mm
11:00 PM 38.7°F3.7°C 35.2°F1.8°C 87% 4.6 mph NW7.4 kmh NW 8.1 mph13.0 kmh 29.87 in1011.5 mb - 0.00 in0.0 mm 0.01 in0.3 mm
11:10 PM 39.0°F3.9°C 35.2°F1.8°C 86% 3.5 mph NW5.6 kmh NW 4.6 mph7.4 kmh 29.87 in1011.5 mb - 0.00 in0.0 mm 0.01 in0.3 mm
11:20 PM 39.1°F3.9°C 35.3°F1.8°C 86% Calm Calm 3.5 mph5.6 kmh 29.88 in1011.9 mb - 0.00 in0.0 mm 0.01 in0.3 mm
11:30 PM 39.1°F3.9°C 35.3°F1.8°C 86% 2.3 mph NW3.7 kmh NW 5.8 mph9.3 kmh 29.87 in1011.5 mb - 0.00 in0.0 mm 0.01 in0.3 mm
11:40 PM 39.0°F3.9°C 35.2°F1.8°C 86% 3.5 mph WNW5.6 kmh WNW 10.4 mph16.7 kmh 29.88 in1011.9 mb - 0.00 in0.0 mm 0.01 in0.3 mm
11:50 PM 38.9°F3.8°C 35.1°F1.7°C 86% 2.3 mph NW3.7 kmh NW 5.8 mph9.3 kmh 29.88 in1011.9 mb - 0.00 in0.0 mm 0.01 in0.3 mm